createdAt,value
2018-06-02T16:27:05.839Z,23.32
2018-06-02T16:28:05.766Z,23.42
2018-06-02T16:30:00.189Z,23.66
2018-06-02T16:31:00.075Z,23.62
2018-06-02T16:32:53.416Z,23.66
2018-06-02T16:33:53.403Z,23.76
2018-06-02T16:35:46.823Z,23.73
2018-06-02T16:36:46.752Z,23.74
2018-06-02T16:38:40.080Z,23.82
2018-06-02T16:39:40.035Z,23.84
2018-06-02T16:41:33.433Z,23.77
2018-06-02T16:42:33.366Z,23.76
2018-06-02T16:44:26.765Z,23.84
2018-06-02T16:45:26.699Z,23.73
2018-06-02T16:47:20.090Z,23.84
2018-06-02T16:48:20.028Z,23.81
2018-06-02T16:50:13.485Z,23.62
2018-06-02T16:51:13.376Z,23.79
2018-06-02T16:53:06.752Z,23.79
2018-06-02T16:54:06.701Z,23.76
2018-06-02T16:56:00.129Z,23.77
2018-06-02T16:57:00.034Z,23.79
2018-06-02T16:58:53.385Z,23.47
2018-06-02T16:59:53.366Z,23.47
2018-06-02T17:01:46.770Z,23.42
2018-06-02T17:02:46.766Z,23.40
2018-06-02T17:04:40.097Z,23.20
2018-06-02T17:05:40.034Z,23.23
2018-06-02T17:07:33.423Z,23.21
2018-06-02T17:08:33.364Z,23.21
2018-06-02T17:10:26.764Z,23.29
2018-06-02T17:11:26.698Z,23.23
2018-06-02T17:13:20.665Z,23.28
2018-06-02T17:14:20.041Z,23.21
2018-06-02T17:16:13.443Z,23.25
2018-06-02T17:17:13.375Z,23.25
2018-06-02T17:19:07.782Z,23.25
2018-06-02T17:20:07.767Z,23.34
2018-06-02T17:22:01.125Z,23.21
2018-06-02T17:23:01.077Z,23.33
2018-06-02T17:24:54.442Z,23.26
2018-06-02T17:25:54.375Z,23.25
2018-06-02T17:27:47.765Z,23.21
2018-06-02T17:28:47.759Z,23.18
2018-06-02T17:30:41.112Z,23.13
2018-06-02T17:31:41.047Z,23.13
2018-06-02T17:33:35.305Z,23.13
2018-06-02T17:34:35.324Z,23.11
2018-06-02T17:36:28.806Z,23.07
2018-06-02T17:37:28.615Z,23.10
2018-06-02T17:39:22.005Z,23.10
2018-06-02T17:40:21.931Z,23.13
2018-06-02T17:42:15.295Z,23.04
2018-06-02T17:43:15.342Z,23.13
2018-06-02T17:45:08.664Z,22.96
2018-06-02T17:46:08.599Z,22.99
2018-06-02T17:48:03.413Z,22.91
2018-06-02T17:49:02.939Z,22.92
2018-06-02T17:50:56.349Z,22.88
2018-06-02T17:51:56.319Z,22.84
2018-06-02T17:53:50.659Z,22.78
2018-06-02T17:54:50.624Z,22.77
2018-06-02T17:55:50.617Z,22.74
2018-06-02T17:56:50.598Z,22.73
2018-06-02T17:57:50.583Z,22.71
2018-06-02T17:58:50.568Z,22.56
2018-06-02T17:59:50.612Z,22.52
2018-06-02T18:00:50.541Z,22.53
2018-06-02T18:01:50.588Z,22.47
2018-06-02T18:02:54.551Z,22.51
2018-06-02T18:03:50.520Z,22.56
2018-06-02T18:05:43.977Z,22.47
2018-06-02T18:06:43.852Z,22.51
2018-06-02T18:08:37.226Z,22.49
2018-06-02T18:09:37.197Z,22.46
2018-06-02T18:11:30.616Z,22.40
2018-06-02T18:12:30.549Z,22.40
2018-06-02T18:14:24.932Z,22.38
2018-06-02T18:15:24.895Z,22.36
2018-06-02T18:17:18.350Z,22.31
2018-06-02T18:18:18.196Z,22.31
2018-06-02T18:20:11.595Z,22.31
2018-06-02T18:21:11.530Z,22.30
2018-06-02T18:23:10.934Z,22.30
2018-06-02T18:24:10.912Z,22.22
2018-06-02T18:26:05.315Z,22.34
2018-06-02T18:27:05.245Z,22.28
2018-06-02T18:28:58.633Z,22.08
2018-06-02T18:29:58.643Z,22.08
2018-06-02T18:31:51.992Z,21.99
2018-06-02T18:32:51.921Z,22.03
2018-06-02T18:34:45.340Z,21.99
2018-06-02T18:35:45.357Z,22.07
2018-06-02T18:37:41.870Z,22.06
2018-06-02T18:38:39.816Z,22.12
2018-06-02T18:39:39.694Z,22.01
2018-06-02T18:40:39.941Z,22.01
2018-06-02T18:41:39.684Z,21.99
2018-06-02T18:42:39.752Z,21.97
2018-06-02T18:43:39.623Z,21.88
2018-06-02T18:44:39.569Z,21.88
2018-06-02T18:45:39.571Z,21.91
2018-06-02T18:46:39.592Z,21.94
2018-06-02T18:47:39.521Z,21.88
2018-06-02T18:48:39.526Z,21.88
2018-06-02T18:49:39.492Z,21.89
2018-06-02T18:50:39.526Z,21.88
2018-06-02T18:51:39.545Z,21.85
2018-06-02T18:52:39.500Z,21.83
2018-06-02T18:53:39.514Z,21.80
2018-06-02T18:54:40.265Z,21.80
2018-06-02T18:55:39.519Z,21.81
2018-06-02T18:56:39.475Z,21.72
2018-06-02T18:57:40.741Z,21.72
2018-06-02T18:58:39.464Z,21.68
2018-06-02T18:59:40.327Z,21.74
2018-06-02T19:00:40.266Z,21.75
2018-06-02T19:01:39.383Z,21.69
2018-06-02T19:02:39.369Z,21.68
2018-06-02T19:03:39.339Z,21.70
2018-06-02T19:04:39.336Z,21.62
2018-06-02T19:05:39.306Z,21.63
2018-06-02T19:06:39.286Z,21.59
2018-06-02T19:07:40.277Z,21.62
2018-06-02T19:08:39.269Z,21.59
2018-06-02T19:09:39.277Z,21.58
2018-06-02T19:10:39.211Z,21.54
2018-06-02T19:11:39.229Z,21.63
2018-06-02T19:12:39.442Z,21.53
2018-06-02T19:13:39.149Z,21.47
2018-06-02T19:14:39.135Z,21.45
2018-06-02T19:15:39.140Z,21.48
2018-06-02T19:16:39.110Z,21.40
2018-06-02T19:17:39.122Z,21.29
2018-06-02T19:18:39.091Z,21.37
2018-06-02T19:19:39.092Z,21.37
2018-06-02T19:20:39.050Z,21.30
2018-06-02T19:21:39.035Z,21.29
2018-06-02T19:22:39.245Z,21.29
2018-06-02T19:23:39.031Z,21.29
2018-06-02T19:24:38.997Z,21.20
2018-06-02T19:25:38.994Z,21.17
2018-06-02T19:26:39.010Z,21.19
2018-06-02T19:27:38.949Z,21.15
2018-06-02T19:28:38.936Z,21.11
2018-06-02T19:29:38.919Z,21.05
2018-06-02T19:30:38.904Z,21.05
2018-06-02T19:31:38.934Z,21.03
2018-06-02T19:32:38.898Z,21.00
2018-06-02T19:33:38.882Z,20.95
2018-06-02T19:34:38.863Z,20.96
2018-06-02T19:35:38.860Z,20.88
2018-06-02T19:36:38.820Z,20.96
2018-06-02T19:37:38.834Z,20.96
2018-06-02T19:38:38.818Z,20.90
2018-06-02T19:39:38.815Z,20.90
2018-06-02T19:40:38.799Z,20.85
2018-06-02T19:41:38.778Z,20.83
2018-06-02T19:42:38.759Z,20.68
2018-06-02T19:43:38.744Z,20.73
2018-06-02T19:44:38.780Z,20.77
2018-06-02T19:45:38.719Z,20.68
2018-06-02T19:46:39.990Z,20.66
2018-06-02T19:47:38.935Z,20.59
2018-06-02T19:48:38.655Z,20.55
2018-06-02T19:49:38.731Z,20.56
2018-06-02T19:50:38.632Z,20.59
2018-06-02T19:51:38.641Z,20.49
2018-06-02T19:52:38.692Z,20.52
2018-06-02T19:53:38.587Z,20.46
2018-06-02T19:54:38.575Z,20.44
2018-06-02T19:55:38.571Z,20.44
2018-06-02T19:56:39.246Z,20.40
2018-06-02T19:57:38.538Z,20.40
2018-06-02T19:58:38.509Z,20.37
2018-06-02T19:59:38.597Z,20.39
2018-06-02T20:00:38.496Z,20.42
2018-06-02T20:01:38.761Z,20.40
2018-06-02T20:02:39.285Z,20.33
2018-06-02T20:03:38.446Z,20.24
2018-06-02T20:04:38.449Z,20.24
2018-06-02T20:05:38.474Z,20.26
2018-06-02T20:06:38.432Z,20.22
2018-06-02T20:07:38.778Z,20.22
2018-06-02T20:08:38.411Z,20.29
2018-06-02T20:09:38.331Z,20.26
2018-06-02T20:10:38.361Z,20.18
2018-06-02T20:11:39.280Z,20.15
2018-06-02T20:12:38.401Z,20.15
2018-06-02T20:13:38.352Z,20.12
2018-06-02T20:14:39.058Z,20.18
2018-06-02T20:15:40.562Z,20.18
2018-06-02T20:16:38.241Z,20.10
2018-06-02T20:17:38.787Z,20.11
2018-06-02T20:18:38.250Z,20.07
2018-06-02T20:19:38.207Z,20.02
2018-06-02T20:20:38.207Z,20.03
2018-06-02T20:21:38.238Z,19.99
2018-06-02T20:22:38.191Z,20.07
2018-06-02T20:23:38.177Z,20.07
2018-06-02T20:24:39.590Z,20.04
2018-06-02T20:25:39.776Z,20.02
2018-06-02T20:26:38.099Z,19.94
2018-06-02T20:27:38.080Z,19.97
2018-06-02T20:28:38.785Z,19.93
2018-06-02T20:29:38.106Z,19.93
2018-06-02T20:30:38.095Z,19.92
2018-06-02T20:31:38.078Z,19.92
2018-06-02T20:32:38.018Z,19.89
2018-06-02T20:33:38.094Z,19.92
2018-06-02T20:34:38.794Z,19.92
2018-06-02T20:35:37.976Z,19.92
2018-06-02T20:36:37.975Z,19.89
2018-06-02T20:37:37.913Z,19.90
2018-06-02T20:38:37.911Z,19.85
2018-06-02T20:39:37.970Z,19.78
2018-06-02T20:40:37.884Z,19.82
2018-06-02T20:41:37.867Z,19.78
2018-06-02T20:42:37.864Z,19.78
2018-06-02T20:43:37.872Z,19.74
2018-06-02T20:44:37.849Z,19.66
2018-06-02T20:45:37.877Z,19.66
2018-06-02T20:46:37.819Z,19.64
2018-06-02T20:47:37.769Z,19.62
2018-06-02T20:48:37.782Z,19.60
2018-06-02T20:49:38.098Z,19.53
2018-06-02T20:50:37.738Z,19.47
2018-06-02T20:51:37.714Z,19.57
2018-06-02T20:52:37.739Z,19.45
2018-06-02T20:53:37.696Z,19.42
2018-06-02T20:54:38.273Z,19.47
2018-06-02T20:55:37.686Z,19.35
2018-06-02T20:56:37.650Z,19.39
2018-06-02T20:57:37.623Z,19.38
2018-06-02T20:58:37.595Z,19.39
2018-06-02T20:59:37.611Z,19.39
2018-06-02T21:00:38.277Z,19.41
2018-06-02T21:01:37.557Z,19.37
2018-06-02T21:02:37.582Z,19.39
2018-06-02T21:03:37.529Z,19.38
2018-06-02T21:04:37.518Z,19.35
2018-06-02T21:05:37.556Z,19.37
2018-06-02T21:06:37.533Z,19.27
2018-06-02T21:07:37.474Z,19.29
2018-06-02T21:08:38.295Z,19.35
2018-06-02T21:09:37.925Z,19.27
2018-06-02T21:10:37.455Z,19.19
2018-06-02T21:11:37.446Z,19.27
2018-06-02T21:12:37.452Z,19.27
2018-06-02T21:13:37.423Z,19.15
2018-06-02T21:14:37.360Z,19.12
2018-06-02T21:15:37.358Z,19.17
2018-06-02T21:16:37.324Z,19.23
2018-06-02T21:17:37.317Z,19.20
2018-06-02T21:18:38.288Z,19.19
2018-06-02T21:19:37.278Z,19.22
2018-06-02T21:20:38.333Z,19.22
2018-06-02T21:21:37.274Z,19.17
2018-06-02T21:22:37.253Z,19.20
2018-06-02T21:23:37.237Z,19.16
2018-06-02T21:24:37.210Z,19.30
2018-06-02T21:25:37.253Z,19.22
2018-06-02T21:26:37.214Z,19.27
2018-06-02T21:27:37.178Z,19.26
2018-06-02T21:28:37.133Z,19.30
2018-06-02T21:29:37.168Z,19.26
2018-06-02T21:30:39.847Z,19.24
2018-06-02T21:31:37.143Z,19.24
2018-06-02T21:32:37.112Z,19.29
2018-06-02T21:33:37.072Z,19.19
2018-06-02T21:34:38.068Z,19.20
2018-06-02T21:35:37.054Z,19.15
2018-06-02T21:36:37.030Z,19.15
2018-06-02T21:37:37.005Z,19.05
2018-06-02T21:38:37.019Z,19.08
2018-06-02T21:39:37.453Z,19.09
2018-06-02T21:40:36.954Z,19.05
2018-06-02T21:41:36.999Z,19.09
2018-06-02T21:42:36.933Z,19.05
2018-06-02T21:43:36.922Z,19.16
2018-06-02T21:44:36.902Z,19.16
2018-06-02T21:45:37.784Z,19.15
2018-06-02T21:46:36.875Z,19.08
2018-06-02T21:47:36.909Z,19.09
2018-06-02T21:48:37.785Z,19.16
2018-06-02T21:49:36.834Z,19.12
2018-06-02T21:50:36.828Z,19.09
2018-06-02T21:51:36.826Z,19.08
2018-06-02T21:52:36.804Z,19.07
2018-06-02T21:53:36.767Z,19.07
2018-06-02T21:54:36.780Z,19.05
2018-06-02T21:55:36.714Z,19.04
2018-06-02T21:56:37.038Z,19.04
2018-06-02T21:57:36.702Z,18.97
2018-06-02T21:58:36.755Z,18.92
2018-06-02T21:59:36.694Z,18.94
2018-06-02T22:00:36.630Z,18.92
2018-06-02T22:01:36.659Z,18.97
2018-06-02T22:02:36.657Z,18.97
2018-06-02T22:03:36.620Z,18.92
2018-06-02T22:04:36.667Z,18.92
2018-06-02T22:05:36.610Z,18.98
2018-06-02T22:06:36.538Z,18.91
2018-06-02T22:07:36.550Z,18.92
2018-06-02T22:08:36.543Z,18.92
2018-06-02T22:09:36.528Z,18.91
2018-06-02T22:10:36.492Z,18.79
2018-06-02T22:11:36.474Z,18.73
2018-06-02T22:12:36.463Z,18.79
2018-06-02T22:13:36.452Z,18.78
2018-06-02T22:14:36.438Z,18.78
2018-06-02T22:15:36.427Z,18.74
2018-06-02T22:16:36.417Z,18.76
2018-06-02T22:17:36.412Z,18.78
2018-06-02T22:18:36.345Z,18.70
2018-06-02T22:19:36.337Z,18.76
2018-06-02T22:20:36.318Z,18.79
2018-06-02T22:21:36.365Z,18.64
2018-06-02T22:22:36.314Z,18.79
2018-06-02T22:23:36.317Z,18.71
2018-06-02T22:24:36.326Z,18.67
2018-06-02T22:25:36.350Z,18.66
2018-06-02T22:26:36.244Z,18.76
2018-06-02T22:27:36.266Z,18.73
2018-06-02T22:28:36.190Z,18.68
2018-06-02T22:29:36.174Z,18.73
2018-06-02T22:30:36.239Z,18.74
2018-06-02T22:31:36.202Z,18.63
2018-06-02T22:32:36.188Z,18.60
2018-06-02T22:33:36.155Z,18.64
2018-06-02T22:34:36.122Z,18.58
2018-06-02T22:35:36.116Z,18.64
2018-06-02T22:36:36.097Z,18.55
2018-06-02T22:37:36.094Z,18.61
2018-06-02T22:38:36.093Z,18.60
2018-06-02T22:39:36.074Z,18.64
2018-06-02T22:40:36.021Z,18.66
2018-06-02T22:41:36.048Z,18.61
2018-06-02T22:42:35.988Z,18.66
2018-06-02T22:43:35.965Z,18.61
2018-06-02T22:44:35.982Z,18.61
2018-06-02T22:45:35.973Z,18.70
2018-06-02T22:46:35.938Z,18.64
2018-06-02T22:47:35.885Z,18.67
2018-06-02T22:48:35.919Z,18.74
2018-06-02T22:49:35.886Z,18.67
2018-06-02T22:50:35.861Z,18.74
2018-06-02T22:51:35.851Z,18.73
2018-06-02T22:52:35.855Z,18.78
2018-06-02T22:53:35.810Z,18.76
2018-06-02T22:54:35.808Z,18.78
2018-06-02T22:55:35.780Z,18.76
2018-06-02T22:56:35.745Z,18.71
2018-06-02T22:57:35.734Z,18.76
2018-06-02T22:58:35.721Z,18.76
2018-06-02T22:59:35.719Z,18.78
2018-06-02T23:00:35.729Z,18.78
2018-06-02T23:01:35.735Z,18.68
2018-06-02T23:02:35.679Z,18.66
2018-06-02T23:03:35.654Z,18.74
2018-06-02T23:04:35.641Z,18.60
2018-06-02T23:05:35.616Z,18.64
2018-06-02T23:06:35.586Z,18.57
2018-06-02T23:07:35.570Z,18.64
2018-06-02T23:08:35.799Z,18.60
2018-06-02T23:09:35.554Z,18.52
2018-06-02T23:10:35.537Z,18.60
2018-06-02T23:11:35.513Z,18.60
2018-06-02T23:12:35.496Z,18.58
2018-06-02T23:13:35.523Z,18.68
2018-06-02T23:14:35.468Z,18.60
2018-06-02T23:15:35.453Z,18.63
2018-06-02T23:16:35.429Z,18.58
2018-06-02T23:17:35.412Z,18.66
2018-06-02T23:18:35.408Z,18.70
2018-06-02T23:19:35.439Z,18.60
2018-06-02T23:20:35.398Z,18.71
2018-06-02T23:21:35.359Z,18.70
2018-06-02T23:22:35.352Z,18.70
2018-06-02T23:23:35.351Z,18.70
2018-06-02T23:24:35.312Z,18.67
2018-06-02T23:25:35.311Z,18.79
2018-06-02T23:26:35.268Z,18.74
2018-06-02T23:27:35.259Z,18.71
2018-06-02T23:28:35.237Z,18.73
2018-06-02T23:29:35.249Z,18.74
2018-06-02T23:30:35.267Z,18.79
2018-06-02T23:31:35.218Z,18.83
2018-06-02T23:32:35.199Z,18.71
2018-06-02T23:33:35.183Z,18.71
2018-06-02T23:34:35.152Z,18.73
2018-06-02T23:35:35.137Z,18.70
2018-06-02T23:36:35.144Z,18.73
2018-06-02T23:37:35.096Z,18.68
2018-06-02T23:38:35.078Z,18.70
2018-06-02T23:39:35.082Z,18.58
2018-06-02T23:40:35.066Z,18.64
2018-06-02T23:41:35.080Z,18.61
2018-06-02T23:42:35.045Z,18.64
2018-06-02T23:43:35.026Z,18.63
2018-06-02T23:44:34.993Z,18.64
2018-06-02T23:45:34.985Z,18.61
2018-06-02T23:46:34.950Z,18.60
2018-06-02T23:47:34.935Z,18.53
2018-06-02T23:48:34.922Z,18.53
2018-06-02T23:49:34.928Z,18.57
2018-06-02T23:50:34.911Z,18.43
2018-06-02T23:51:34.887Z,18.49
2018-06-02T23:52:34.871Z,18.46
2018-06-02T23:53:34.876Z,18.48
2018-06-02T23:54:34.842Z,18.42
2018-06-02T23:55:34.836Z,18.42
2018-06-02T23:56:34.794Z,18.45
2018-06-02T23:57:34.776Z,18.45
2018-06-02T23:58:34.759Z,18.45
2018-06-02T23:59:34.764Z,18.36
